sensor_id;sensor_type;location;lat;lon;timestamp;P1;durP1;ratioP1;P2;durP2;ratioP2
14078;SDS011;7115;50.150;8.568;2024-01-30T00:00:12;19.87;;;13.03;;
14078;SDS011;7115;50.150;8.568;2024-01-30T00:02:39;22.10;;;12.87;;
14078;SDS011;7115;50.150;8.568;2024-01-30T00:05:07;22.37;;;13.00;;
14078;SDS011;7115;50.150;8.568;2024-01-30T00:07:34;23.13;;;13.10;;
14078;SDS011;7115;50.150;8.568;2024-01-30T00:10:01;22.27;;;13.33;;
14078;SDS011;7115;50.150;8.568;2024-01-30T00:12:28;18.57;;;12.87;;
14078;SDS011;7115;50.150;8.568;2024-01-30T00:14:55;17.97;;;12.00;;
14078;SDS011;7115;50.150;8.568;2024-01-30T00:17:23;18.73;;;11.93;;
14078;SDS011;7115;50.150;8.568;2024-01-30T00:19:52;18.27;;;11.07;;
14078;SDS011;7115;50.150;8.568;2024-01-30T00:22:19;22.90;;;11.20;;
14078;SDS011;7115;50.150;8.568;2024-01-30T00:24:46;18.70;;;11.33;;
14078;SDS011;7115;50.150;8.568;2024-01-30T00:27:14;19.80;;;12.07;;
14078;SDS011;7115;50.150;8.568;2024-01-30T00:29:41;21.60;;;11.60;;
14078;SDS011;7115;50.150;8.568;2024-01-30T00:32:08;21.87;;;12.17;;
14078;SDS011;7115;50.150;8.568;2024-01-30T00:34:36;20.00;;;11.47;;
14078;SDS011;7115;50.150;8.568;2024-01-30T00:37:03;22.37;;;11.57;;
14078;SDS011;7115;50.150;8.568;2024-01-30T00:39:30;24.77;;;12.17;;
14078;SDS011;7115;50.150;8.568;2024-01-30T00:41:58;17.27;;;12.07;;
14078;SDS011;7115;50.150;8.568;2024-01-30T00:44:25;26.83;;;11.63;;
14078;SDS011;7115;50.150;8.568;2024-01-30T00:46:52;18.13;;;11.90;;
14078;SDS011;7115;50.150;8.568;2024-01-30T00:49:19;17.40;;;11.43;;
14078;SDS011;7115;50.150;8.568;2024-01-30T00:51:48;19.50;;;12.10;;
14078;SDS011;7115;50.150;8.568;2024-01-30T00:54:15;18.03;;;11.93;;
14078;SDS011;7115;50.150;8.568;2024-01-30T00:56:42;21.07;;;12.13;;
14078;SDS011;7115;50.150;8.568;2024-01-30T00:59:09;20.13;;;12.83;;
14078;SDS011;7115;50.150;8.568;2024-01-30T01:01:37;19.40;;;11.73;;
14078;SDS011;7115;50.150;8.568;2024-01-30T01:04:04;23.57;;;12.70;;
14078;SDS011;7115;50.150;8.568;2024-01-30T01:06:31;17.87;;;11.90;;
14078;SDS011;7115;50.150;8.568;2024-01-30T01:08:59;16.67;;;12.00;;
14078;SDS011;7115;50.150;8.568;2024-01-30T01:11:30;17.13;;;10.70;;
14078;SDS011;7115;50.150;8.568;2024-01-30T01:13:57;16.73;;;10.97;;
14078;SDS011;7115;50.150;8.568;2024-01-30T01:16:24;17.73;;;9.60;;
14078;SDS011;7115;50.150;8.568;2024-01-30T01:18:51;16.73;;;9.53;;
14078;SDS011;7115;50.150;8.568;2024-01-30T01:21:18;18.10;;;10.17;;
14078;SDS011;7115;50.150;8.568;2024-01-30T01:23:45;15.87;;;10.00;;
14078;SDS011;7115;50.150;8.568;2024-01-30T01:26:14;18.40;;;9.70;;
14078;SDS011;7115;50.150;8.568;2024-01-30T01:28:41;15.03;;;10.47;;
14078;SDS011;7115;50.150;8.568;2024-01-30T01:31:08;16.17;;;10.67;;
14078;SDS011;7115;50.150;8.568;2024-01-30T01:33:35;17.17;;;9.97;;
14078;SDS011;7115;50.150;8.568;2024-01-30T01:36:04;17.57;;;11.13;;
14078;SDS011;7115;50.150;8.568;2024-01-30T01:38:32;20.67;;;10.67;;
14078;SDS011;7115;50.150;8.568;2024-01-30T01:41:00;16.77;;;11.23;;
14078;SDS011;7115;50.150;8.568;2024-01-30T01:43:28;17.93;;;10.70;;
14078;SDS011;7115;50.150;8.568;2024-01-30T01:45:56;18.90;;;12.33;;
14078;SDS011;7115;50.150;8.568;2024-01-30T01:48:23;18.07;;;11.20;;
14078;SDS011;7115;50.150;8.568;2024-01-30T01:50:51;18.77;;;11.37;;
14078;SDS011;7115;50.150;8.568;2024-01-30T01:53:19;17.07;;;11.50;;
14078;SDS011;7115;50.150;8.568;2024-01-30T01:55:46;17.57;;;10.80;;
14078;SDS011;7115;50.150;8.568;2024-01-30T01:58:14;15.23;;;10.70;;
14078;SDS011;7115;50.150;8.568;2024-01-30T02:00:43;21.00;;;11.23;;
14078;SDS011;7115;50.150;8.568;2024-01-30T02:03:10;18.40;;;10.63;;
14078;SDS011;7115;50.150;8.568;2024-01-30T02:05:40;17.63;;;10.40;;
14078;SDS011;7115;50.150;8.568;2024-01-30T02:08:08;15.17;;;10.77;;
14078;SDS011;7115;50.150;8.568;2024-01-30T02:10:36;17.33;;;10.73;;
14078;SDS011;7115;50.150;8.568;2024-01-30T02:13:03;15.17;;;10.77;;
14078;SDS011;7115;50.150;8.568;2024-01-30T02:15:31;18.17;;;10.83;;
14078;SDS011;7115;50.150;8.568;2024-01-30T02:17:59;14.27;;;9.73;;
14078;SDS011;7115;50.150;8.568;2024-01-30T02:20:26;15.33;;;9.87;;
14078;SDS011;7115;50.150;8.568;2024-01-30T02:22:58;15.87;;;10.10;;
14078;SDS011;7115;50.150;8.568;2024-01-30T02:25:30;17.63;;;10.47;;
14078;SDS011;7115;50.150;8.568;2024-01-30T02:27:58;15.17;;;10.30;;
14078;SDS011;7115;50.150;8.568;2024-01-30T02:30:25;19.90;;;11.77;;
14078;SDS011;7115;50.150;8.568;2024-01-30T02:32:52;18.40;;;11.03;;
14078;SDS011;7115;50.150;8.568;2024-01-30T02:35:19;18.47;;;10.43;;
14078;SDS011;7115;50.150;8.568;2024-01-30T02:37:46;16.77;;;10.63;;
14078;SDS011;7115;50.150;8.568;2024-01-30T02:40:14;15.10;;;9.87;;
14078;SDS011;7115;50.150;8.568;2024-01-30T02:42:41;15.63;;;10.23;;
14078;SDS011;7115;50.150;8.568;2024-01-30T02:45:09;20.77;;;11.17;;
14078;SDS011;7115;50.150;8.568;2024-01-30T02:47:38;18.50;;;10.60;;
14078;SDS011;7115;50.150;8.568;2024-01-30T02:50:05;15.20;;;10.03;;
14078;SDS011;7115;50.150;8.568;2024-01-30T02:52:33;16.27;;;10.70;;
14078;SDS011;7115;50.150;8.568;2024-01-30T02:55:00;16.17;;;10.67;;
14078;SDS011;7115;50.150;8.568;2024-01-30T02:57:29;15.87;;;9.93;;
14078;SDS011;7115;50.150;8.568;2024-01-30T02:59:57;16.93;;;9.47;;
14078;SDS011;7115;50.150;8.568;2024-01-30T03:02:24;16.77;;;10.27;;
14078;SDS011;7115;50.150;8.568;2024-01-30T03:04:51;12.53;;;8.57;;
14078;SDS011;7115;50.150;8.568;2024-01-30T03:07:18;13.33;;;9.47;;
14078;SDS011;7115;50.150;8.568;2024-01-30T03:09:45;16.20;;;9.53;;
14078;SDS011;7115;50.150;8.568;2024-01-30T03:12:12;16.53;;;10.13;;
14078;SDS011;7115;50.150;8.568;2024-01-30T03:14:40;14.60;;;9.03;;
14078;SDS011;7115;50.150;8.568;2024-01-30T03:17:07;17.77;;;9.47;;
14078;SDS011;7115;50.150;8.568;2024-01-30T03:19:34;14.40;;;9.43;;
14078;SDS011;7115;50.150;8.568;2024-01-30T03:22:01;13.50;;;10.07;;
14078;SDS011;7115;50.150;8.568;2024-01-30T03:24:29;15.07;;;9.90;;
14078;SDS011;7115;50.150;8.568;2024-01-30T03:26:56;17.17;;;8.77;;
14078;SDS011;7115;50.150;8.568;2024-01-30T03:29:23;17.37;;;10.07;;
14078;SDS011;7115;50.150;8.568;2024-01-30T03:31:51;16.50;;;10.10;;
14078;SDS011;7115;50.150;8.568;2024-01-30T03:34:18;16.03;;;10.80;;
14078;SDS011;7115;50.150;8.568;2024-01-30T03:36:45;16.37;;;10.23;;
14078;SDS011;7115;50.150;8.568;2024-01-30T03:39:12;16.50;;;10.33;;
14078;SDS011;7115;50.150;8.568;2024-01-30T03:41:41;15.40;;;9.23;;
14078;SDS011;7115;50.150;8.568;2024-01-30T03:44:09;15.80;;;9.83;;
14078;SDS011;7115;50.150;8.568;2024-01-30T03:46:36;18.27;;;9.97;;
14078;SDS011;7115;50.150;8.568;2024-01-30T03:49:05;15.17;;;8.93;;
14078;SDS011;7115;50.150;8.568;2024-01-30T03:51:32;15.07;;;9.70;;
14078;SDS011;7115;50.150;8.568;2024-01-30T03:53:58;18.00;;;10.27;;
14078;SDS011;7115;50.150;8.568;2024-01-30T03:56:25;13.87;;;9.03;;
14078;SDS011;7115;50.150;8.568;2024-01-30T03:58:52;18.40;;;9.67;;
14078;SDS011;7115;50.150;8.568;2024-01-30T04:01:19;18.07;;;10.77;;
14078;SDS011;7115;50.150;8.568;2024-01-30T04:03:46;16.53;;;9.80;;
14078;SDS011;7115;50.150;8.568;2024-01-30T04:06:15;17.50;;;10.10;;
14078;SDS011;7115;50.150;8.568;2024-01-30T04:08:42;20.13;;;11.13;;
14078;SDS011;7115;50.150;8.568;2024-01-30T04:11:09;16.70;;;9.77;;
14078;SDS011;7115;50.150;8.568;2024-01-30T04:13:36;16.27;;;9.53;;
14078;SDS011;7115;50.150;8.568;2024-01-30T04:16:03;16.93;;;10.80;;
14078;SDS011;7115;50.150;8.568;2024-01-30T04:18:31;16.70;;;9.50;;
14078;SDS011;7115;50.150;8.568;2024-01-30T04:20:59;18.90;;;9.63;;
14078;SDS011;7115;50.150;8.568;2024-01-30T04:23:28;22.50;;;10.50;;
14078;SDS011;7115;50.150;8.568;2024-01-30T04:25:55;16.60;;;9.33;;
14078;SDS011;7115;50.150;8.568;2024-01-30T04:28:22;17.20;;;9.63;;
14078;SDS011;7115;50.150;8.568;2024-01-30T04:30:49;19.97;;;9.50;;
14078;SDS011;7115;50.150;8.568;2024-01-30T04:33:16;14.60;;;8.93;;
14078;SDS011;7115;50.150;8.568;2024-01-30T04:35:44;16.07;;;8.80;;
14078;SDS011;7115;50.150;8.568;2024-01-30T04:38:11;16.17;;;9.73;;
14078;SDS011;7115;50.150;8.568;2024-01-30T04:40:40;16.37;;;9.33;;
14078;SDS011;7115;50.150;8.568;2024-01-30T04:43:06;15.17;;;9.37;;
14078;SDS011;7115;50.150;8.568;2024-01-30T04:45:33;19.80;;;9.70;;
14078;SDS011;7115;50.150;8.568;2024-01-30T04:48:01;16.93;;;8.97;;
14078;SDS011;7115;50.150;8.568;2024-01-30T04:50:29;17.50;;;9.90;;
14078;SDS011;7115;50.150;8.568;2024-01-30T04:52:56;17.87;;;9.47;;
14078;SDS011;7115;50.150;8.568;2024-01-30T04:55:23;17.43;;;9.90;;
14078;SDS011;7115;50.150;8.568;2024-01-30T04:57:51;15.00;;;9.17;;
14078;SDS011;7115;50.150;8.568;2024-01-30T05:00:18;16.73;;;9.50;;
14078;SDS011;7115;50.150;8.568;2024-01-30T05:02:45;14.60;;;9.80;;
14078;SDS011;7115;50.150;8.568;2024-01-30T05:05:12;16.50;;;9.30;;
14078;SDS011;7115;50.150;8.568;2024-01-30T05:07:40;15.60;;;10.60;;
14078;SDS011;7115;50.150;8.568;2024-01-30T05:10:08;17.80;;;10.57;;
14078;SDS011;7115;50.150;8.568;2024-01-30T05:12:38;14.63;;;9.83;;
14078;SDS011;7115;50.150;8.568;2024-01-30T05:15:07;21.27;;;12.30;;
14078;SDS011;7115;50.150;8.568;2024-01-30T05:17:35;16.77;;;10.17;;
14078;SDS011;7115;50.150;8.568;2024-01-30T05:20:02;19.77;;;10.20;;
14078;SDS011;7115;50.150;8.568;2024-01-30T05:22:31;16.03;;;9.77;;
14078;SDS011;7115;50.150;8.568;2024-01-30T05:24:58;19.97;;;10.53;;
14078;SDS011;7115;50.150;8.568;2024-01-30T05:27:25;18.43;;;9.90;;
14078;SDS011;7115;50.150;8.568;2024-01-30T05:29:52;14.70;;;9.87;;
14078;SDS011;7115;50.150;8.568;2024-01-30T05:32:20;13.20;;;9.47;;
14078;SDS011;7115;50.150;8.568;2024-01-30T05:34:47;14.40;;;8.87;;
14078;SDS011;7115;50.150;8.568;2024-01-30T05:37:16;15.80;;;9.43;;
14078;SDS011;7115;50.150;8.568;2024-01-30T05:39:44;12.37;;;8.97;;
14078;SDS011;7115;50.150;8.568;2024-01-30T05:42:11;14.43;;;9.67;;
14078;SDS011;7115;50.150;8.568;2024-01-30T05:44:38;13.33;;;8.80;;
14078;SDS011;7115;50.150;8.568;2024-01-30T05:47:05;16.73;;;9.70;;
14078;SDS011;7115;50.150;8.568;2024-01-30T05:49:33;13.63;;;9.10;;
14078;SDS011;7115;50.150;8.568;2024-01-30T05:52:01;20.70;;;9.40;;
14078;SDS011;7115;50.150;8.568;2024-01-30T05:54:29;16.47;;;9.17;;
14078;SDS011;7115;50.150;8.568;2024-01-30T05:56:56;18.07;;;10.50;;
14078;SDS011;7115;50.150;8.568;2024-01-30T05:59:23;16.93;;;10.73;;
14078;SDS011;7115;50.150;8.568;2024-01-30T06:01:50;14.77;;;9.83;;
14078;SDS011;7115;50.150;8.568;2024-01-30T06:04:17;17.93;;;9.57;;
14078;SDS011;7115;50.150;8.568;2024-01-30T06:06:45;18.90;;;11.30;;
14078;SDS011;7115;50.150;8.568;2024-01-30T06:09:12;20.30;;;12.10;;
14078;SDS011;7115;50.150;8.568;2024-01-30T06:11:40;18.60;;;11.50;;
14078;SDS011;7115;50.150;8.568;2024-01-30T06:14:07;20.93;;;10.10;;
14078;SDS011;7115;50.150;8.568;2024-01-30T06:16:34;15.57;;;10.03;;
14078;SDS011;7115;50.150;8.568;2024-01-30T06:19:01;17.20;;;10.10;;
14078;SDS011;7115;50.150;8.568;2024-01-30T06:21:28;14.80;;;9.93;;
14078;SDS011;7115;50.150;8.568;2024-01-30T06:23:56;12.70;;;9.10;;
14078;SDS011;7115;50.150;8.568;2024-01-30T06:26:23;12.93;;;8.67;;
14078;SDS011;7115;50.150;8.568;2024-01-30T06:28:50;15.63;;;9.90;;
14078;SDS011;7115;50.150;8.568;2024-01-30T06:31:18;16.40;;;9.70;;
14078;SDS011;7115;50.150;8.568;2024-01-30T06:33:46;19.67;;;10.20;;
14078;SDS011;7115;50.150;8.568;2024-01-30T06:36:13;15.40;;;9.27;;
14078;SDS011;7115;50.150;8.568;2024-01-30T06:38:40;18.20;;;9.77;;
14078;SDS011;7115;50.150;8.568;2024-01-30T06:41:08;18.13;;;9.70;;
14078;SDS011;7115;50.150;8.568;2024-01-30T06:43:35;13.90;;;9.77;;
14078;SDS011;7115;50.150;8.568;2024-01-30T06:46:02;18.33;;;10.77;;
14078;SDS011;7115;50.150;8.568;2024-01-30T06:48:29;17.53;;;9.77;;
14078;SDS011;7115;50.150;8.568;2024-01-30T06:50:56;19.80;;;11.63;;
14078;SDS011;7115;50.150;8.568;2024-01-30T06:53:24;17.40;;;11.37;;
14078;SDS011;7115;50.150;8.568;2024-01-30T06:55:52;19.60;;;12.20;;
14078;SDS011;7115;50.150;8.568;2024-01-30T06:58:21;16.87;;;11.90;;
14078;SDS011;7115;50.150;8.568;2024-01-30T07:00:48;24.97;;;13.30;;
14078;SDS011;7115;50.150;8.568;2024-01-30T07:03:15;15.83;;;10.77;;
14078;SDS011;7115;50.150;8.568;2024-01-30T07:05:42;17.27;;;11.20;;
14078;SDS011;7115;50.150;8.568;2024-01-30T07:08:09;18.20;;;11.13;;
14078;SDS011;7115;50.150;8.568;2024-01-30T07:10:36;18.10;;;11.67;;
14078;SDS011;7115;50.150;8.568;2024-01-30T07:13:03;19.67;;;11.13;;
14078;SDS011;7115;50.150;8.568;2024-01-30T07:15:33;16.53;;;11.00;;
14078;SDS011;7115;50.150;8.568;2024-01-30T07:18:00;20.53;;;11.00;;
14078;SDS011;7115;50.150;8.568;2024-01-30T07:20:27;17.33;;;10.13;;
14078;SDS011;7115;50.150;8.568;2024-01-30T07:22:57;14.37;;;10.23;;
14078;SDS011;7115;50.150;8.568;2024-01-30T07:25:24;14.20;;;9.63;;
14078;SDS011;7115;50.150;8.568;2024-01-30T07:27:56;31.10;;;20.73;;
14078;SDS011;7115;50.150;8.568;2024-01-30T07:30:23;16.20;;;10.60;;
14078;SDS011;7115;50.150;8.568;2024-01-30T07:32:52;15.30;;;10.47;;
14078;SDS011;7115;50.150;8.568;2024-01-30T07:35:19;22.13;;;10.67;;
14078;SDS011;7115;50.150;8.568;2024-01-30T07:37:46;18.80;;;11.33;;
14078;SDS011;7115;50.150;8.568;2024-01-30T07:40:13;17.70;;;11.23;;
14078;SDS011;7115;50.150;8.568;2024-01-30T07:42:43;19.40;;;10.70;;
14078;SDS011;7115;50.150;8.568;2024-01-30T07:45:10;21.00;;;12.00;;
14078;SDS011;7115;50.150;8.568;2024-01-30T07:47:37;15.57;;;11.37;;
14078;SDS011;7115;50.150;8.568;2024-01-30T07:50:06;20.30;;;11.33;;
14078;SDS011;7115;50.150;8.568;2024-01-30T07:52:34;16.30;;;11.43;;
14078;SDS011;7115;50.150;8.568;2024-01-30T07:55:01;18.70;;;11.53;;
14078;SDS011;7115;50.150;8.568;2024-01-30T07:57:30;18.17;;;9.73;;
14078;SDS011;7115;50.150;8.568;2024-01-30T07:59:57;18.53;;;12.57;;
14078;SDS011;7115;50.150;8.568;2024-01-30T08:02:24;22.03;;;13.80;;
14078;SDS011;7115;50.150;8.568;2024-01-30T08:04:51;21.80;;;12.70;;
14078;SDS011;7115;50.150;8.568;2024-01-30T08:07:20;23.47;;;15.70;;
14078;SDS011;7115;50.150;8.568;2024-01-30T08:09:49;27.57;;;19.27;;
14078;SDS011;7115;50.150;8.568;2024-01-30T08:12:16;22.43;;;16.43;;
14078;SDS011;7115;50.150;8.568;2024-01-30T08:14:43;25.50;;;14.77;;
14078;SDS011;7115;50.150;8.568;2024-01-30T08:17:10;20.40;;;13.23;;
14078;SDS011;7115;50.150;8.568;2024-01-30T08:19:37;19.73;;;13.13;;
14078;SDS011;7115;50.150;8.568;2024-01-30T08:22:04;22.60;;;12.60;;
14078;SDS011;7115;50.150;8.568;2024-01-30T08:24:32;18.03;;;12.30;;
14078;SDS011;7115;50.150;8.568;2024-01-30T08:26:59;20.83;;;12.83;;
14078;SDS011;7115;50.150;8.568;2024-01-30T08:29:28;26.67;;;12.77;;
14078;SDS011;7115;50.150;8.568;2024-01-30T08:31:55;22.70;;;12.80;;
14078;SDS011;7115;50.150;8.568;2024-01-30T08:34:22;21.80;;;12.97;;
14078;SDS011;7115;50.150;8.568;2024-01-30T08:36:50;20.53;;;13.53;;
14078;SDS011;7115;50.150;8.568;2024-01-30T08:39:17;20.30;;;12.73;;
14078;SDS011;7115;50.150;8.568;2024-01-30T08:41:45;18.27;;;13.30;;
14078;SDS011;7115;50.150;8.568;2024-01-30T08:44:12;23.77;;;13.83;;
14078;SDS011;7115;50.150;8.568;2024-01-30T08:46:39;18.83;;;13.07;;
14078;SDS011;7115;50.150;8.568;2024-01-30T08:49:07;17.30;;;12.60;;
14078;SDS011;7115;50.150;8.568;2024-01-30T08:51:34;19.63;;;13.17;;
14078;SDS011;7115;50.150;8.568;2024-01-30T08:54:01;20.07;;;11.97;;
14078;SDS011;7115;50.150;8.568;2024-01-30T08:56:29;17.03;;;11.83;;
14078;SDS011;7115;50.150;8.568;2024-01-30T08:58:57;21.77;;;13.23;;
14078;SDS011;7115;50.150;8.568;2024-01-30T09:01:24;19.73;;;12.50;;
14078;SDS011;7115;50.150;8.568;2024-01-30T09:03:51;17.87;;;12.97;;
14078;SDS011;7115;50.150;8.568;2024-01-30T09:06:18;24.97;;;13.33;;
14078;SDS011;7115;50.150;8.568;2024-01-30T09:08:45;24.40;;;13.40;;
14078;SDS011;7115;50.150;8.568;2024-01-30T09:11:13;22.17;;;13.83;;
14078;SDS011;7115;50.150;8.568;2024-01-30T09:13:40;19.10;;;13.10;;
14078;SDS011;7115;50.150;8.568;2024-01-30T09:16:09;19.37;;;12.60;;
14078;SDS011;7115;50.150;8.568;2024-01-30T09:18:36;19.03;;;12.90;;
14078;SDS011;7115;50.150;8.568;2024-01-30T09:21:03;19.33;;;13.50;;
14078;SDS011;7115;50.150;8.568;2024-01-30T09:23:31;23.30;;;13.67;;
14078;SDS011;7115;50.150;8.568;2024-01-30T09:26:16;19.40;;;12.27;;
14078;SDS011;7115;50.150;8.568;2024-01-30T09:28:43;22.47;;;13.60;;
14078;SDS011;7115;50.150;8.568;2024-01-30T09:31:12;19.30;;;13.10;;
14078;SDS011;7115;50.150;8.568;2024-01-30T09:33:39;20.83;;;13.67;;
14078;SDS011;7115;50.150;8.568;2024-01-30T09:36:08;22.30;;;14.23;;
14078;SDS011;7115;50.150;8.568;2024-01-30T09:38:35;22.57;;;14.20;;
14078;SDS011;7115;50.150;8.568;2024-01-30T09:41:03;22.77;;;14.23;;
14078;SDS011;7115;50.150;8.568;2024-01-30T09:43:33;21.17;;;14.40;;
14078;SDS011;7115;50.150;8.568;2024-01-30T09:46:03;18.50;;;13.73;;
14078;SDS011;7115;50.150;8.568;2024-01-30T09:48:33;19.93;;;13.50;;
14078;SDS011;7115;50.150;8.568;2024-01-30T09:51:01;18.27;;;13.17;;
14078;SDS011;7115;50.150;8.568;2024-01-30T09:53:29;22.53;;;14.20;;
14078;SDS011;7115;50.150;8.568;2024-01-30T09:55:56;26.63;;;14.13;;
14078;SDS011;7115;50.150;8.568;2024-01-30T09:58:24;24.50;;;14.73;;
14078;SDS011;7115;50.150;8.568;2024-01-30T10:00:52;23.00;;;14.07;;
14078;SDS011;7115;50.150;8.568;2024-01-30T10:03:23;19.33;;;12.63;;
14078;SDS011;7115;50.150;8.568;2024-01-30T10:05:53;22.30;;;14.10;;
14078;SDS011;7115;50.150;8.568;2024-01-30T10:08:22;23.47;;;14.53;;
14078;SDS011;7115;50.150;8.568;2024-01-30T10:10:49;22.13;;;13.80;;
14078;SDS011;7115;50.150;8.568;2024-01-30T10:13:16;21.47;;;14.40;;
14078;SDS011;7115;50.150;8.568;2024-01-30T10:15:43;23.30;;;13.97;;
14078;SDS011;7115;50.150;8.568;2024-01-30T10:18:11;21.53;;;13.87;;
14078;SDS011;7115;50.150;8.568;2024-01-30T10:20:38;24.13;;;14.60;;
14078;SDS011;7115;50.150;8.568;2024-01-30T10:23:07;20.47;;;13.70;;
14078;SDS011;7115;50.150;8.568;2024-01-30T10:25:34;26.20;;;15.23;;
14078;SDS011;7115;50.150;8.568;2024-01-30T10:28:02;20.80;;;14.03;;
14078;SDS011;7115;50.150;8.568;2024-01-30T10:30:30;21.07;;;14.53;;
14078;SDS011;7115;50.150;8.568;2024-01-30T10:32:57;23.33;;;14.13;;
14078;SDS011;7115;50.150;8.568;2024-01-30T10:35:24;22.80;;;14.07;;
14078;SDS011;7115;50.150;8.568;2024-01-30T10:37:51;20.43;;;13.83;;
14078;SDS011;7115;50.150;8.568;2024-01-30T10:40:21;20.53;;;14.73;;
14078;SDS011;7115;50.150;8.568;2024-01-30T10:42:52;23.10;;;14.47;;
14078;SDS011;7115;50.150;8.568;2024-01-30T10:45:22;19.43;;;14.13;;
14078;SDS011;7115;50.150;8.568;2024-01-30T10:47:55;24.10;;;14.83;;
14078;SDS011;7115;50.150;8.568;2024-01-30T10:50:25;20.90;;;14.03;;
14078;SDS011;7115;50.150;8.568;2024-01-30T10:52:53;23.63;;;14.47;;
14078;SDS011;7115;50.150;8.568;2024-01-30T10:55:23;22.60;;;14.83;;
14078;SDS011;7115;50.150;8.568;2024-01-30T10:57:51;22.87;;;14.40;;
14078;SDS011;7115;50.150;8.568;2024-01-30T11:00:19;19.63;;;13.73;;
14078;SDS011;7115;50.150;8.568;2024-01-30T11:02:50;21.77;;;14.10;;
14078;SDS011;7115;50.150;8.568;2024-01-30T11:05:23;24.00;;;13.87;;
14078;SDS011;7115;50.150;8.568;2024-01-30T11:07:59;21.97;;;14.13;;
14078;SDS011;7115;50.150;8.568;2024-01-30T11:10:45;21.50;;;14.27;;
14078;SDS011;7115;50.150;8.568;2024-01-30T11:13:13;25.00;;;15.90;;
14078;SDS011;7115;50.150;8.568;2024-01-30T11:15:41;24.00;;;14.23;;
14078;SDS011;7115;50.150;8.568;2024-01-30T11:18:08;23.20;;;14.60;;
14078;SDS011;7115;50.150;8.568;2024-01-30T11:20:35;23.50;;;14.33;;
14078;SDS011;7115;50.150;8.568;2024-01-30T11:23:03;19.43;;;14.20;;
14078;SDS011;7115;50.150;8.568;2024-01-30T11:25:33;24.03;;;14.53;;
14078;SDS011;7115;50.150;8.568;2024-01-30T11:28:02;22.57;;;14.13;;
14078;SDS011;7115;50.150;8.568;2024-01-30T11:30:30;20.13;;;14.50;;
14078;SDS011;7115;50.150;8.568;2024-01-30T11:33:01;21.93;;;14.43;;
14078;SDS011;7115;50.150;8.568;2024-01-30T11:35:32;26.13;;;14.83;;
14078;SDS011;7115;50.150;8.568;2024-01-30T11:37:59;24.50;;;14.90;;
14078;SDS011;7115;50.150;8.568;2024-01-30T11:40:27;23.73;;;14.47;;
14078;SDS011;7115;50.150;8.568;2024-01-30T11:42:56;22.90;;;14.77;;
14078;SDS011;7115;50.150;8.568;2024-01-30T11:45:25;27.13;;;14.50;;
14078;SDS011;7115;50.150;8.568;2024-01-30T11:47:53;30.03;;;14.67;;
14078;SDS011;7115;50.150;8.568;2024-01-30T11:50:20;22.30;;;15.20;;
14078;SDS011;7115;50.150;8.568;2024-01-30T11:52:48;23.00;;;15.40;;
14078;SDS011;7115;50.150;8.568;2024-01-30T11:55:15;21.90;;;15.23;;
14078;SDS011;7115;50.150;8.568;2024-01-30T11:57:43;27.63;;;15.13;;
14078;SDS011;7115;50.150;8.568;2024-01-30T12:00:16;20.37;;;13.87;;
14078;SDS011;7115;50.150;8.568;2024-01-30T12:02:49;19.97;;;14.23;;
14078;SDS011;7115;50.150;8.568;2024-01-30T12:05:18;19.23;;;14.17;;
14078;SDS011;7115;50.150;8.568;2024-01-30T12:07:46;27.57;;;14.83;;
14078;SDS011;7115;50.150;8.568;2024-01-30T12:10:13;23.07;;;14.97;;
14078;SDS011;7115;50.150;8.568;2024-01-30T12:12:42;23.90;;;14.27;;
14078;SDS011;7115;50.150;8.568;2024-01-30T12:15:11;20.97;;;14.70;;
14078;SDS011;7115;50.150;8.568;2024-01-30T12:17:39;17.50;;;13.27;;
14078;SDS011;7115;50.150;8.568;2024-01-30T12:20:09;21.47;;;15.63;;
14078;SDS011;7115;50.150;8.568;2024-01-30T12:22:38;25.67;;;14.50;;
14078;SDS011;7115;50.150;8.568;2024-01-30T12:25:07;20.13;;;13.83;;
14078;SDS011;7115;50.150;8.568;2024-01-30T12:27:35;23.03;;;14.20;;
14078;SDS011;7115;50.150;8.568;2024-01-30T12:30:04;19.67;;;14.40;;
14078;SDS011;7115;50.150;8.568;2024-01-30T12:32:34;22.10;;;14.80;;
14078;SDS011;7115;50.150;8.568;2024-01-30T12:35:01;24.37;;;14.43;;
14078;SDS011;7115;50.150;8.568;2024-01-30T12:37:30;21.30;;;13.43;;
14078;SDS011;7115;50.150;8.568;2024-01-30T12:39:58;20.07;;;13.17;;
14078;SDS011;7115;50.150;8.568;2024-01-30T12:42:26;19.87;;;13.60;;
14078;SDS011;7115;50.150;8.568;2024-01-30T12:44:53;21.00;;;13.57;;
14078;SDS011;7115;50.150;8.568;2024-01-30T12:47:21;19.07;;;13.67;;
14078;SDS011;7115;50.150;8.568;2024-01-30T12:49:48;19.60;;;13.97;;
14078;SDS011;7115;50.150;8.568;2024-01-30T12:52:16;19.07;;;12.90;;
14078;SDS011;7115;50.150;8.568;2024-01-30T12:54:44;21.27;;;13.47;;
14078;SDS011;7115;50.150;8.568;2024-01-30T12:57:11;23.80;;;13.23;;
14078;SDS011;7115;50.150;8.568;2024-01-30T12:59:38;24.53;;;13.17;;
14078;SDS011;7115;50.150;8.568;2024-01-30T13:02:06;23.67;;;13.17;;
14078;SDS011;7115;50.150;8.568;2024-01-30T13:04:33;20.00;;;11.90;;
14078;SDS011;7115;50.150;8.568;2024-01-30T13:07:01;22.67;;;13.73;;
14078;SDS011;7115;50.150;8.568;2024-01-30T13:09:29;19.70;;;13.20;;
14078;SDS011;7115;50.150;8.568;2024-01-30T13:11:58;21.40;;;12.30;;
14078;SDS011;7115;50.150;8.568;2024-01-30T13:14:26;18.50;;;12.13;;
14078;SDS011;7115;50.150;8.568;2024-01-30T13:16:53;16.57;;;12.00;;
14078;SDS011;7115;50.150;8.568;2024-01-30T13:19:20;18.87;;;12.60;;
14078;SDS011;7115;50.150;8.568;2024-01-30T13:21:48;18.70;;;12.67;;
14078;SDS011;7115;50.150;8.568;2024-01-30T13:24:15;23.87;;;13.47;;
14078;SDS011;7115;50.150;8.568;2024-01-30T13:26:42;18.97;;;12.40;;
14078;SDS011;7115;50.150;8.568;2024-01-30T13:29:11;19.17;;;12.63;;
14078;SDS011;7115;50.150;8.568;2024-01-30T13:31:38;17.73;;;12.07;;
14078;SDS011;7115;50.150;8.568;2024-01-30T13:34:10;19.57;;;12.17;;
14078;SDS011;7115;50.150;8.568;2024-01-30T13:36:37;22.10;;;12.80;;
14078;SDS011;7115;50.150;8.568;2024-01-30T13:39:05;18.77;;;12.80;;
14078;SDS011;7115;50.150;8.568;2024-01-30T13:41:35;16.97;;;12.23;;
14078;SDS011;7115;50.150;8.568;2024-01-30T13:44:03;17.43;;;12.53;;
14078;SDS011;7115;50.150;8.568;2024-01-30T13:46:31;17.97;;;11.80;;
14078;SDS011;7115;50.150;8.568;2024-01-30T13:48:58;20.37;;;12.10;;
14078;SDS011;7115;50.150;8.568;2024-01-30T13:51:26;22.93;;;12.73;;
14078;SDS011;7115;50.150;8.568;2024-01-30T13:53:54;19.27;;;11.37;;
14078;SDS011;7115;50.150;8.568;2024-01-30T13:56:20;18.87;;;13.23;;
14078;SDS011;7115;50.150;8.568;2024-01-30T13:58:48;18.23;;;12.37;;
14078;SDS011;7115;50.150;8.568;2024-01-30T14:01:16;19.33;;;12.30;;
14078;SDS011;7115;50.150;8.568;2024-01-30T14:03:45;20.70;;;13.23;;
14078;SDS011;7115;50.150;8.568;2024-01-30T14:06:18;19.53;;;12.97;;
14078;SDS011;7115;50.150;8.568;2024-01-30T14:08:46;19.23;;;12.53;;
14078;SDS011;7115;50.150;8.568;2024-01-30T14:11:22;17.90;;;12.60;;
14078;SDS011;7115;50.150;8.568;2024-01-30T14:13:49;20.60;;;13.27;;
14078;SDS011;7115;50.150;8.568;2024-01-30T14:16:16;23.53;;;14.33;;
14078;SDS011;7115;50.150;8.568;2024-01-30T14:18:43;19.57;;;13.13;;
14078;SDS011;7115;50.150;8.568;2024-01-30T14:21:12;23.43;;;14.40;;
14078;SDS011;7115;50.150;8.568;2024-01-30T14:23:39;21.13;;;13.50;;
14078;SDS011;7115;50.150;8.568;2024-01-30T14:26:06;22.07;;;13.37;;
14078;SDS011;7115;50.150;8.568;2024-01-30T14:28:33;21.03;;;13.70;;
14078;SDS011;7115;50.150;8.568;2024-01-30T14:31:00;21.20;;;14.00;;
14078;SDS011;7115;50.150;8.568;2024-01-30T14:33:27;20.97;;;13.80;;
14078;SDS011;7115;50.150;8.568;2024-01-30T14:35:56;19.43;;;12.83;;
14078;SDS011;7115;50.150;8.568;2024-01-30T14:38:23;22.13;;;12.63;;
14078;SDS011;7115;50.150;8.568;2024-01-30T14:40:51;19.43;;;12.63;;